X  Stänga Metar väderdata för luftfart     EDDM Munich Airport
Temperatur
14°C Temperatur
11°C Daggpunkt
82% Fuktighet



Vind
5 KM/T
3 MPH
1 M/S
3 KTS



270°
V
Nuvarande omständigheter

Regnskurar Regn Regnskurar Regn
Tryck 1010.92 (hPa) - 29.85 (inHg)
Synlighet 6.2 (mil) - 10 (km)
Flygplats
Flygplatskod EDDM

Plats: Munich Airport
Distans: 73 (km)

Metar:
EDDM 251450Z AUTO 27003KT 9999 SHRA FEW025 SCT///TCU 14/11 Q1011 TEMPO SHRA

Tid: 25-09-2022 16:50 CEST